Time;durP1;ratioP1;P1;durP2;ratioP2;P2;SDS_P1;SDS_P2;PMS_P1;PMS_P2;Temp;Humidity;BMP_temperature;BMP_pressure;BME280_temperature;BME280_humidity;BME280_pressure;Samples;Min_cycle;Max_cycle;Signal;HPM_P1;HPM_P2
2023/10/28 00:01:37;;;;;;;3.58;1.88;;;;;;;13.81;43.76;102019.41;5013790;28;20049;-73
2023/10/28 00:04:10;;;;;;;3.65;1.95;;;;;;;13.75;44.19;102016.59;5015254;28;20050;-75
2023/10/28 00:06:39;;;;;;;;;;;;;;;13.68;45.63;102019.81;5015773;28;20562;-76
2023/10/28 00:09:10;;;;;;;4.18;2.25;;;;;;;13.58;44.40;102022.06;5016734;28;19932;-77
2023/10/28 00:11:39;;;;;;;2.65;1.60;;;;;;;13.48;43.68;102024.25;5020913;28;20451;-75
2023/10/28 00:14:08;;;;;;;2.17;1.40;;;;;;;13.38;43.42;102020.44;5020408;28;20543;-76
2023/10/28 00:16:43;;;;;;;2.53;1.63;;;;;;;13.28;43.23;102015.69;5029663;28;20057;-76
2023/10/28 00:19:16;;;;;;;2.42;1.48;;;;;;;13.19;42.96;102014.47;5011034;28;20100;-75
2023/10/28 00:21:43;;;;;;;;;;;;;;;12.98;43.53;102011.03;5020632;28;20046;-76
2023/10/28 00:24:18;;;;;;;3.38;1.58;;;;;;;12.95;44.83;102018.72;5026422;28;19983;-76
2023/10/28 00:26:47;;;;;;;2.13;1.52;;;;;;;12.87;46.14;102023.56;5011936;28;20041;-77
2023/10/28 00:29:15;;;;;;;3.75;1.80;;;;;;;12.77;46.68;102024.91;5009250;28;20057;-77
2023/10/28 00:31:50;;;;;;;2.25;1.70;;;;;;;12.70;45.86;102022.91;5012083;28;20517;-76
2023/10/28 00:34:19;;;;;;;2.33;1.25;;;;;;;12.61;47.13;102014.72;5020481;28;20050;-76
2023/10/28 00:36:48;;;;;;;2.83;1.45;;;;;;;12.54;46.93;102023.97;5008492;28;20062;-76
2023/10/28 00:39:18;;;;;;;3.05;1.65;;;;;;;12.46;47.10;102021.88;5012632;28;20756;-76
2023/10/28 00:41:47;;;;;;;2.00;1.27;;;;;;;12.36;48.95;102024.09;5013428;28;20045;-76
2023/10/28 00:44:17;;;;;;;2.60;1.45;;;;;;;12.28;48.00;102022.88;5015616;28;20065;-75
2023/10/28 00:46:46;;;;;;;2.20;1.60;;;;;;;12.19;47.38;102022.50;5013828;28;20049;-76
2023/10/28 00:49:15;;;;;;;2.42;1.52;;;;;;;12.11;46.94;102021.25;5011848;28;20231;-76
2023/10/28 00:51:46;;;;;;;2.60;1.58;;;;;;;12.04;48.49;102017.50;5024524;28;20052;-76
2023/10/28 00:54:19;;;;;;;2.25;1.60;;;;;;;11.98;48.79;102016.34;5014637;28;20223;-76
2023/10/28 00:56:48;;;;;;;2.25;1.50;;;;;;;11.90;49.34;102022.09;5025402;28;20057;-76
2023/10/28 00:59:17;;;;;;;4.50;2.10;;;;;;;11.80;50.78;102017.31;5011111;28;20073;-76
2023/10/28 01:01:45;;;;;;;2.63;1.55;;;;;;;11.71;50.02;102025.53;5010885;28;20049;-76
2023/10/28 01:04:18;;;;;;;3.25;1.63;;;;;;;11.62;51.34;102013.88;5023607;28;20056;-77
2023/10/28 01:06:47;;;;;;;3.63;1.70;;;;;;;11.54;50.90;102013.50;5010338;28;20158;-75
2023/10/28 01:09:16;;;;;;;3.20;2.05;;;;;;;11.47;50.60;102017.53;5016631;28;20266;-77
2023/10/28 01:11:47;;;;;;;3.90;1.98;;;;;;;11.40;51.59;102012.88;5017964;28;20507;-78
2023/10/28 01:14:15;;;;;;;2.42;1.75;;;;;;;11.32;51.15;102022.03;5020401;28;20503;-77
2023/10/28 01:16:45;;;;;;;3.10;1.77;;;;;;;11.26;51.06;102019.13;5016454;28;20054;-75
2023/10/28 01:19:14;;;;;;;3.50;1.70;;;;;;;11.16;51.36;102022.13;5014661;28;20523;-76
2023/10/28 01:21:44;;;;;;;3.58;1.92;;;;;;;11.08;51.87;102024.31;5008210;28;20534;-75
2023/10/28 01:24:13;;;;;;;4.68;2.03;;;;;;;10.99;54.62;102022.19;5010016;28;20092;-75
2023/10/28 01:26:41;;;;;;;3.78;2.00;;;;;;;10.93;53.26;102021.03;5011984;28;20426;-75
2023/10/28 01:29:15;;;;;;;4.25;2.10;;;;;;;10.87;55.42;102024.19;5023895;28;20557;-75
2023/10/28 01:31:44;;;;;;;3.13;1.67;;;;;;;10.81;55.50;102029.97;5013104;28;20058;-75
2023/10/28 01:34:16;;;;;;;5.72;1.88;;;;;;;10.76;54.95;102027.94;5018370;28;20450;-74
2023/10/28 01:36:57;;;;;;;5.40;2.40;;;;;;;10.67;55.96;102034.47;5008034;28;20499;-74
2023/10/28 01:39:25;;;;;;;8.60;3.20;;;;;;;10.60;56.43;102036.66;5008989;28;20798;-74
2023/10/28 01:41:54;;;;;;;9.15;4.00;;;;;;;10.51;56.63;102031.03;5009438;28;20483;-74
2023/10/28 01:44:23;;;;;;;8.18;4.13;;;;;;;10.42;58.11;102037.53;5011646;28;20451;-73
2023/10/28 01:46:51;;;;;;;11.10;4.40;;;;;;;10.34;58.74;102041.41;5011677;28;20531;-75
2023/10/28 01:49:21;;;;;;;6.85;4.05;;;;;;;10.27;58.47;102042.75;5015032;28;20038;-75
2023/10/28 01:51:51;;;;;;;8.95;3.67;;;;;;;10.19;59.69;102043.16;5014110;28;20084;-73
2023/10/28 01:54:19;;;;;;;9.25;4.38;;;;;;;10.12;60.35;102054.91;5016253;28;20049;-75
2023/10/28 01:56:51;;;;;;;6.90;3.92;;;;;;;10.03;61.19;102057.91;5016646;28;20054;-76
2023/10/28 01:59:20;;;;;;;10.57;4.05;;;;;;;9.96;61.60;102060.06;5016330;28;20046;-73
2023/10/28 02:01:49;;;;;;;7.95;3.28;;;;;;;9.85;63.38;102063.00;5019478;28;20088;-76
2023/10/28 02:04:17;;;;;;;7.05;3.40;;;;;;;9.74;64.67;102069.28;5015273;28;20112;-72
2023/10/28 02:06:49;;;;;;;4.35;3.08;;;;;;;9.67;64.71;102061.09;5028284;28;20069;-75
2023/10/28 02:09:19;;;;;;;6.75;2.80;;;;;;;9.61;65.16;102066.84;5030749;28;20042;-75
2023/10/28 02:11:48;;;;;;;4.65;2.80;;;;;;;9.54;65.88;102070.78;5022190;28;20093;-76
2023/10/28 02:14:16;;;;;;;7.00;2.47;;;;;;;9.48;66.03;102074.72;5018375;28;20131;-77
2023/10/28 02:16:45;;;;;;;5.40;2.70;;;;;;;9.40;65.91;102088.09;5020667;28;20103;-76
2023/10/28 02:19:14;;;;;;;5.22;2.70;;;;;;;9.33;66.20;102088.56;5020146;28;20054;-75
2023/10/28 02:21:47;;;;;;;7.10;2.67;;;;;;;9.26;66.17;102090.75;5024726;28;20453;-75
2023/10/28 02:24:16;;;;;;;8.82;3.50;;;;;;;9.17;66.67;102089.41;5010005;28;20057;-74
2023/10/28 02:26:47;;;;;;;8.85;4.03;;;;;;;9.12;66.56;102090.84;5013077;28;20057;-75
2023/10/28 02:29:15;;;;;;;7.50;4.00;;;;;;;9.05;66.20;102082.63;5024255;28;20053;-75
2023/10/28 02:31:44;;;;;;;7.45;4.30;;;;;;;9.00;66.89;102084.97;5008328;28;20049;-72
2023/10/28 02:34:12;;;;;;;7.75;3.15;;;;;;;8.93;67.16;102094.06;5020110;28;20526;-73
2023/10/28 02:36:55;;;;;;;7.65;3.78;;;;;;;8.87;68.77;102088.56;5011473;28;20107;-74
2023/10/28 02:39:27;;;;;;;4.50;2.75;;;;;;;8.79;68.96;102088.09;5017975;28;20472;-74
2023/10/28 02:41:57;;;;;;;4.20;2.90;;;;;;;8.73;72.01;102099.78;5019725;28;20050;-75
2023/10/28 02:44:26;;;;;;;3.90;2.90;;;;;;;8.67;74.05;102099.41;5019081;28;20127;-73
2023/10/28 02:46:56;;;;;;;3.95;3.00;;;;;;;8.61;74.43;102105.06;5012512;28;20475;-72
2023/10/28 02:49:26;;;;;;;7.78;3.03;;;;;;;8.55;74.22;102105.63;5026634;28;20494;-74
2023/10/28 02:51:55;;;;;;;7.60;3.15;;;;;;;8.50;75.00;102112.19;5010722;28;20120;-74
2023/10/28 02:54:23;;;;;;;4.07;2.70;;;;;;;8.41;77.00;102109.06;5017632;28;20050;-73
2023/10/28 02:56:52;;;;;;;4.18;2.35;;;;;;;8.36;76.41;102111.34;5023795;28;20049;-72
2023/10/28 02:59:22;;;;;;;4.43;2.72;;;;;;;8.30;75.94;102118.69;5010856;28;20054;-73
2023/10/28 03:01:53;;;;;;;5.07;2.80;;;;;;;8.24;78.19;102117.44;5020148;28;20045;-73
2023/10/28 03:04:22;;;;;;;3.85;2.05;;;;;;;8.15;76.30;102118.69;5009475;28;20116;-73
2023/10/28 03:06:51;;;;;;;5.50;2.85;;;;;;;8.11;76.56;102115.81;5017918;28;20483;-74
2023/10/28 03:09:19;;;;;;;3.13;2.10;;;;;;;8.06;77.33;102122.34;5028044;28;20053;-74
2023/10/28 03:11:48;;;;;;;3.28;2.13;;;;;;;8.00;76.84;102127.16;5018851;28;20057;-73
2023/10/28 03:14:17;;;;;;;2.80;1.75;;;;;;;7.92;75.74;102122.38;5025721;28;20163;-72
2023/10/28 03:16:47;;;;;;;3.20;2.13;;;;;;;7.88;75.75;102127.25;5022997;28;20590;-73
2023/10/28 03:19:15;;;;;;;6.80;2.03;;;;;;;7.83;76.11;102123.50;5022024;28;20568;-73
2023/10/28 03:21:44;;;;;;;2.80;2.13;;;;;;;7.75;76.34;102128.19;5025935;28;20054;-73
2023/10/28 03:24:13;;;;;;;3.45;2.08;;;;;;;7.69;74.47;102120.94;5021094;28;20394;-74
2023/10/28 03:26:44;;;;;;;4.85;1.90;;;;;;;7.62;74.76;102129.09;5023137;28;20057;-73
2023/10/28 03:29:12;;;;;;;4.93;2.25;;;;;;;7.58;74.80;102137.41;5028075;28;20049;-74
2023/10/28 03:31:41;;;;;;;3.97;2.25;;;;;;;7.53;74.34;102143.97;5031118;28;20057;-75
2023/10/28 03:34:11;;;;;;;7.30;2.75;;;;;;;7.47;73.84;102148.75;5024207;28;20058;-73
2023/10/28 03:36:40;;;;;;;5.35;2.50;;;;;;;7.41;73.94;102145.75;5024444;28;20061;-74
2023/10/28 03:39:09;;;;;;;3.67;2.10;;;;;;;7.37;74.04;102157.53;5021165;28;20125;-73
2023/10/28 03:41:41;;;;;;;4.13;2.35;;;;;;;7.31;74.85;102147.75;5015656;28;20050;-73
2023/10/28 03:44:10;;;;;;;4.18;2.20;;;;;;;7.28;75.22;102139.81;5015500;28;20068;-72
2023/10/28 03:46:42;;;;;;;4.68;2.38;;;;;;;7.22;74.93;102147.13;5015247;28;20050;-74
2023/10/28 03:49:12;;;;;;;3.03;1.70;;;;;;;7.19;76.03;102146.03;5016589;28;20477;-74
2023/10/28 03:51:41;;;;;;;3.97;1.98;;;;;;;7.14;77.44;102143.16;5019230;28;20052;-72
2023/10/28 03:54:09;;;;;;;3.33;2.25;;;;;;;7.09;76.88;102139.41;5012224;28;20053;-73
2023/10/28 03:56:38;;;;;;;4.55;2.42;;;;;;;7.04;77.44;102141.69;5014548;28;20356;-74
2023/10/28 03:59:06;;;;;;;5.55;2.45;;;;;;;7.01;77.29;102150.84;5026811;28;20103;-75
2023/10/28 04:01:35;;;;;;;3.15;2.35;;;;;;;6.95;77.46;102150.47;5018180;28;20494;-74
2023/10/28 04:04:04;;;;;;;5.32;2.88;;;;;;;6.89;78.86;102151.84;5020861;28;20045;-73
2023/10/28 04:06:34;;;;;;;2.88;2.10;;;;;;;6.85;79.03;102148.94;5019982;28;20074;-74
2023/10/28 04:09:03;;;;;;;10.95;2.63;;;;;;;6.83;79.40;102159.16;5018551;28;20397;-74
2023/10/28 04:11:32;;;;;;;3.53;2.15;;;;;;;6.79;79.82;102157.16;5013577;28;20513;-73
2023/10/28 04:14:00;;;;;;;4.30;2.55;;;;;;;6.76;80.69;102159.53;5015683;28;20049;-74
2023/10/28 04:16:29;;;;;;;4.68;2.50;;;;;;;6.71;80.31;102155.75;5021272;28;20281;-74
2023/10/28 04:18:57;;;;;;;5.28;2.17;;;;;;;6.65;80.40;102155.34;5014077;28;20084;-73
2023/10/28 04:21:26;;;;;;;4.72;2.60;;;;;;;6.60;80.95;102152.47;5022931;28;20054;-76
2023/10/28 04:24:00;;;;;;;5.03;2.47;;;;;;;6.55;81.79;102153.84;5027373;28;20497;-75
2023/10/28 04:26:28;;;;;;;4.30;2.40;;;;;;;6.49;81.68;102150.84;5017438;28;20053;-74
2023/10/28 04:28:59;;;;;;;3.63;2.47;;;;;;;6.44;82.02;102153.09;5026639;28;20046;-75
2023/10/28 04:31:29;;;;;;;3.20;2.15;;;;;;;6.40;82.40;102160.50;5020017;28;20041;-74
2023/10/28 04:33:58;;;;;;;5.45;2.70;;;;;;;6.36;82.48;102161.94;5012981;28;20042;-74
2023/10/28 04:36:26;;;;;;;4.50;2.30;;;;;;;6.32;82.38;102161.63;5020140;28;20537;-74
2023/10/28 04:38:55;;;;;;;3.83;2.58;;;;;;;6.26;82.03;102169.81;5018717;28;20089;-76
2023/10/28 04:41:25;;;;;;;4.53;2.88;;;;;;;6.23;81.62;102174.72;5014285;28;20064;-74
2023/10/28 04:44:04;;;;;;;;;;;;;;;;;;;;;
2023/10/28 04:46:33;;;;;;;5.07;2.55;;;;;;;6.14;82.15;102181.78;5023117;28;20248;-73
2023/10/28 04:49:01;;;;;;;3.88;2.20;;;;;;;6.10;81.71;102184.97;5015221;28;20495;-75
2023/10/28 04:51:30;;;;;;;3.67;2.72;;;;;;;6.07;82.03;102194.25;5021551;28;20053;-74
2023/10/28 04:53:58;;;;;;;3.65;2.55;;;;;;;6.04;83.27;102194.00;5016120;28;20049;-75
2023/10/28 04:56:29;;;;;;;4.65;2.67;;;;;;;6.01;83.84;102192.91;5020079;28;20758;-74
2023/10/28 04:58:57;;;;;;;5.30;2.60;;;;;;;5.99;85.23;102200.50;5014015;28;20075;-73
2023/10/28 05:01:26;;;;;;;4.85;2.53;;;;;;;5.97;85.09;102202.06;5023792;28;20100;-75
2023/10/28 05:03:54;;;;;;;5.43;3.03;;;;;;;5.93;84.69;102210.28;5014537;28;20107;-75
2023/10/28 05:06:25;;;;;;;5.13;2.38;;;;;;;5.92;84.63;102215.34;5013173;28;20743;-73
2023/10/28 05:08:53;;;;;;;4.43;2.50;;;;;;;5.88;83.53;102221.91;5025035;28;20103;-74
2023/10/28 05:11:22;;;;;;;6.82;2.65;;;;;;;5.85;82.78;102219.16;5023396;28;20048;-73
2023/10/28 05:13:53;;;;;;;5.63;2.42;;;;;;;5.84;83.22;102225.97;5015353;28;20056;-74
2023/10/28 05:16:23;;;;;;;4.80;2.47;;;;;;;5.81;82.74;102224.84;5019960;28;20037;-74
2023/10/28 05:18:54;;;;;;;7.57;2.50;;;;;;;5.78;81.96;102224.63;5021087;28;20060;-75
2023/10/28 05:21:22;;;;;;;4.35;2.65;;;;;;;5.75;82.21;102233.00;5013079;28;20264;-73
2023/10/28 05:23:52;;;;;;;4.63;2.42;;;;;;;5.74;82.67;102241.47;5014643;28;20045;-74
2023/10/28 05:26:20;;;;;;;5.05;2.40;;;;;;;5.73;82.82;102241.38;5018234;28;20119;-73
2023/10/28 05:28:50;;;;;;;4.88;2.70;;;;;;;5.69;82.33;102241.94;5016295;28;20116;-74
2023/10/28 05:31:20;;;;;;;3.83;2.50;;;;;;;5.66;81.92;102243.50;5017180;28;20049;-74
2023/10/28 05:33:49;;;;;;;4.95;2.40;;;;;;;5.64;82.34;102246.72;5011055;28;20475;-75
2023/10/28 05:36:18;;;;;;;8.82;3.05;;;;;;;5.61;82.30;102242.28;5015071;28;20054;-74
2023/10/28 05:38:46;;;;;;;4.05;2.53;;;;;;;5.59;82.81;102245.47;5011118;28;20412;-74
2023/10/28 05:41:22;;;;;;;6.65;2.67;;;;;;;5.57;83.02;102247.97;5014231;28;20751;-75
2023/10/28 05:43:50;;;;;;;3.83;2.30;;;;;;;5.56;82.69;102250.41;5017668;28;20050;-74
2023/10/28 05:46:22;;;;;;;3.25;2.75;;;;;;;5.52;82.21;102251.88;5012666;28;20046;-75
2023/10/28 05:48:54;;;;;;;4.47;2.37;;;;;;;5.50;82.23;102255.06;5017589;28;20412;-73
2023/10/28 05:51:23;;;;;;;5.07;2.65;;;;;;;5.47;82.31;102260.88;5022765;28;20349;-73
2023/10/28 05:53:52;;;;;;;6.82;2.72;;;;;;;5.44;81.79;102264.13;5010266;28;20046;-73
2023/10/28 05:56:21;;;;;;;5.82;2.92;;;;;;;5.41;82.67;102263.00;5020753;28;20049;-74
2023/10/28 05:58:49;;;;;;;10.27;3.40;;;;;;;5.39;82.53;102269.69;5013081;28;20053;-73
2023/10/28 06:01:20;;;;;;;4.50;2.75;;;;;;;5.36;82.61;102272.94;5018751;28;20051;-73
2023/10/28 06:03:49;;;;;;;6.78;2.50;;;;;;;5.34;82.61;102277.06;5018189;28;20145;-74
2023/10/28 06:06:18;;;;;;;5.38;2.90;;;;;;;5.31;82.90;102278.50;5022034;28;20152;-73
2023/10/28 06:08:47;;;;;;;6.38;2.92;;;;;;;5.29;82.61;102285.16;5023386;28;20107;-73
2023/10/28 06:11:16;;;;;;;4.88;2.75;;;;;;;5.28;82.97;102285.97;5022055;28;20076;-73
2023/10/28 06:13:47;;;;;;;5.93;3.13;;;;;;;5.25;83.69;102290.09;5021878;28;20052;-73
2023/10/28 06:16:18;;;;;;;5.88;3.40;;;;;;;5.22;83.38;102292.44;5024586;28;20053;-72
2023/10/28 06:18:49;;;;;;;5.50;3.10;;;;;;;5.15;84.50;102290.16;5017447;28;20518;-72
2023/10/28 06:21:20;;;;;;;7.00;3.20;;;;;;;5.17;84.43;102304.00;5021323;28;20499;-73
2023/10/28 06:23:48;;;;;;;7.13;3.40;;;;;;;5.15;85.28;102297.84;5023963;28;20548;-71
2023/10/28 06:26:18;;;;;;;7.05;3.50;;;;;;;5.13;84.84;102302.00;5024893;28;20123;-72
2023/10/28 06:28:47;;;;;;;8.85;4.50;;;;;;;5.12;85.43;102305.31;5022350;28;20061;-73
2023/10/28 06:31:16;;;;;;;4.88;3.15;;;;;;;5.10;85.59;102304.31;5021788;28;20137;-73
2023/10/28 06:33:44;;;;;;;6.53;3.72;;;;;;;5.07;86.04;102305.75;5024913;28;20045;-72
2023/10/28 06:36:15;;;;;;;6.28;3.33;;;;;;;5.04;85.56;102302.19;5021220;28;20058;-74
2023/10/28 06:38:43;;;;;;;5.45;3.33;;;;;;;5.00;85.80;102304.41;5022489;28;20620;-73
2023/10/28 06:41:12;;;;;;;6.13;3.55;;;;;;;4.97;86.82;102304.13;5021579;28;20103;-72
2023/10/28 06:43:40;;;;;;;6.85;3.33;;;;;;;4.94;87.02;102309.03;5019917;28;20053;-73
2023/10/28 06:46:09;;;;;;;7.22;2.92;;;;;;;4.91;86.88;102312.28;5019255;28;20053;-73
2023/10/28 06:48:38;;;;;;;6.40;3.33;;;;;;;4.89;87.67;102315.50;5019186;28;20041;-72
2023/10/28 06:51:12;;;;;;;6.43;2.83;;;;;;;4.86;87.89;102316.16;5017128;28;20065;-73
2023/10/28 06:53:42;;;;;;;4.25;2.40;;;;;;;4.83;88.24;102321.94;5020737;28;20068;-72
2023/10/28 06:56:16;;;;;;;8.50;3.17;;;;;;;4.80;88.31;102323.38;5020363;28;20057;-73
2023/10/28 06:58:44;;;;;;;6.63;3.08;;;;;;;4.71;88.78;102320.97;5025511;28;20089;-73
2023/10/28 07:01:13;;;;;;;6.72;3.30;;;;;;;4.77;89.12;102333.41;5020914;28;20073;-73
2023/10/28 07:03:41;;;;;;;8.30;4.93;;;;;;;4.75;89.09;102346.09;5021472;28;20050;-72
2023/10/28 07:06:14;;;;;;;8.52;3.88;;;;;;;4.73;88.53;102342.50;5019993;28;20081;-73
2023/10/28 07:08:45;;;;;;;6.72;2.95;;;;;;;4.71;88.90;102344.06;5021149;28;20594;-74
2023/10/28 07:11:14;;;;;;;6.97;3.03;;;;;;;4.69;89.78;102343.03;5021162;28;20068;-74
2023/10/28 07:13:44;;;;;;;6.82;3.55;;;;;;;4.67;90.26;102349.72;5017204;28;20140;-73
2023/10/28 07:16:13;;;;;;;5.30;3.05;;;;;;;4.65;90.41;102355.50;5017912;28;20073;-73
2023/10/28 07:18:43;;;;;;;6.00;2.90;;;;;;;4.62;90.96;102354.47;5021158;28;20058;-73
2023/10/28 07:21:12;;;;;;;10.32;3.42;;;;;;;4.61;90.84;102355.25;5020940;28;20053;-73
2023/10/28 07:23:43;;;;;;;10.40;3.50;;;;;;;4.59;90.52;102361.03;5020600;28;20052;-73
2023/10/28 07:26:14;;;;;;;7.60;2.95;;;;;;;4.59;91.72;102355.91;5014373;28;20136;-73
2023/10/28 07:28:43;;;;;;;7.15;3.40;;;;;;;4.57;91.58;102357.47;5020799;28;20065;-73
2023/10/28 07:31:11;;;;;;;6.50;3.72;;;;;;;4.55;91.18;102366.69;5017341;28;20053;-73
2023/10/28 07:33:40;;;;;;;9.88;5.03;;;;;;;4.49;91.78;102351.72;5016751;28;20559;-73
2023/10/28 07:36:10;;;;;;;9.73;4.43;;;;;;;4.49;91.00;102366.19;5017164;28;20050;-74
2023/10/28 07:38:41;;;;;;;6.13;4.25;;;;;;;4.46;91.55;102358.28;5022224;28;20049;-73
2023/10/28 07:41:13;;;;;;;10.15;3.63;;;;;;;4.47;91.70;102363.53;5017381;28;20077;-73
2023/10/28 07:43:42;;;;;;;5.85;3.03;;;;;;;4.46;92.32;102363.41;5018316;28;20057;-73
2023/10/28 07:46:14;;;;;;;6.75;3.15;;;;;;;4.45;92.60;102361.63;5019647;28;20063;-72
2023/10/28 07:48:42;;;;;;;6.88;3.88;;;;;;;4.46;92.15;102365.97;5025965;28;20057;-73
2023/10/28 07:51:18;;;;;;;10.30;3.58;;;;;;;4.45;91.72;102364.19;5016813;28;20060;-74
2023/10/28 07:53:49;;;;;;;9.93;4.05;;;;;;;4.46;91.85;102363.41;5023766;28;20060;-74
2023/10/28 07:56:21;;;;;;;4.50;2.95;;;;;;;4.46;91.76;102363.41;5026119;28;20137;-73
2023/10/28 07:58:57;;;;;;;8.07;4.30;;;;;;;4.43;91.60;102364.06;5022432;28;20167;-74
2023/10/28 08:01:27;;;;;;;6.95;3.00;;;;;;;4.41;91.76;102363.91;5020203;28;20053;-73
2023/10/28 08:03:55;;;;;;;9.10;3.95;;;;;;;4.38;92.44;102366.25;5027536;28;20083;-73
2023/10/28 08:06:27;;;;;;;10.27;3.38;;;;;;;4.39;93.22;102368.03;5022486;28;20142;-74
2023/10/28 08:08:56;;;;;;;5.47;3.03;;;;;;;4.40;93.04;102364.72;5019834;28;20084;-73
2023/10/28 08:11:27;;;;;;;9.73;3.10;;;;;;;4.39;93.08;102370.59;5020805;28;20479;-73
2023/10/28 08:13:55;;;;;;;4.68;2.70;;;;;;;4.42;92.49;102369.94;5025115;28;20112;-74
2023/10/28 08:16:24;;;;;;;7.28;2.83;;;;;;;4.45;91.64;102371.88;5019105;28;20046;-74
2023/10/28 08:18:58;;;;;;;3.78;2.03;;;;;;;4.40;90.69;102357.00;5022760;28;20045;-73
2023/10/28 08:21:27;;;;;;;4.18;2.38;;;;;;;4.50;90.47;102376.59;5023110;28;20061;-72
2023/10/28 08:23:55;;;;;;;4.53;2.55;;;;;;;4.52;90.73;102380.16;5022683;28;20072;-74
2023/10/28 08:26:28;;;;;;;6.70;2.72;;;;;;;4.57;92.42;102381.41;5019788;28;20104;-74
2023/10/28 08:28:58;;;;;;;6.00;2.38;;;;;;;4.59;90.66;102381.56;5021430;28;20594;-74
2023/10/28 08:31:27;;;;;;;5.57;2.50;;;;;;;4.56;90.42;102373.63;5020774;28;20471;-72
2023/10/28 08:33:55;;;;;;;6.05;2.72;;;;;;;4.65;90.50;102389.75;5023593;28;20077;-73
2023/10/28 08:36:25;;;;;;;3.55;2.20;;;;;;;4.67;89.99;102389.84;5026829;28;20057;-73
2023/10/28 08:38:55;;;;;;;5.15;2.53;;;;;;;4.68;89.26;102384.84;5025141;28;20100;-74
2023/10/28 08:41:28;;;;;;;5.18;2.13;;;;;;;4.70;89.18;102390.09;5020303;28;20091;-73
2023/10/28 08:44:00;;;;;;;4.32;2.25;;;;;;;4.71;88.37;102389.31;5021755;28;20056;-72
2023/10/28 08:46:29;;;;;;;4.35;2.38;;;;;;;4.71;87.73;102385.06;5023730;28;20088;-74
2023/10/28 08:49:04;;;;;;;4.85;2.40;;;;;;;4.71;87.50;102381.63;5017960;28;20061;-74
2023/10/28 08:51:34;;;;;;;9.32;2.28;;;;;;;4.72;87.46;102388.53;5022521;28;20108;-72
2023/10/28 08:54:04;;;;;;;4.25;2.58;;;;;;;4.72;86.79;102394.59;5016444;28;20058;-73
2023/10/28 08:56:36;;;;;;;5.15;2.40;;;;;;;4.71;86.57;102392.78;5023323;28;20072;-73
2023/10/28 08:59:07;;;;;;;6.32;2.63;;;;;;;4.70;86.13;102396.13;5024046;28;20056;-73
2023/10/28 09:01:36;;;;;;;6.18;2.67;;;;;;;4.69;85.30;102388.28;5024096;28;20114;-72
2023/10/28 09:04:05;;;;;;;3.75;2.00;;;;;;;4.62;85.79;102382.66;5021426;28;20648;-73
2023/10/28 09:06:34;;;;;;;5.55;3.65;;;;;;;4.67;85.21;102389.84;5017180;28;20049;-73
2023/10/28 09:09:06;;;;;;;5.10;2.38;;;;;;;4.65;84.60;102387.19;5017962;28;20046;-73
2023/10/28 09:11:36;;;;;;;4.60;2.70;;;;;;;4.66;84.41;102393.19;5025154;28;20056;-73
2023/10/28 09:14:09;;;;;;;5.03;2.20;;;;;;;4.64;82.92;102385.38;5017292;28;20054;-72
2023/10/28 09:16:37;;;;;;;5.15;2.63;;;;;;;4.64;82.85;102389.63;5021956;28;20061;-73
2023/10/28 09:19:12;;;;;;;6.15;2.13;;;;;;;4.64;82.70;102384.47;5018171;28;20050;-73
2023/10/28 09:21:41;;;;;;;6.28;2.15;;;;;;;4.62;83.23;102381.78;5016172;28;20045;-73
2023/10/28 09:24:11;;;;;;;4.43;2.28;;;;;;;4.62;82.73;102386.91;5021723;28;20124;-73
2023/10/28 09:26:42;;;;;;;5.82;2.30;;;;;;;4.59;82.08;102381.56;5013372;28;20507;-72
2023/10/28 09:29:12;;;;;;;5.72;2.17;;;;;;;4.60;83.13;102388.44;5021127;28;20057;-72
2023/10/28 09:31:41;;;;;;;6.85;2.88;;;;;;;4.57;82.81;102386.53;5020643;28;20046;-73
2023/10/28 09:34:10;;;;;;;3.70;1.83;;;;;;;4.57;83.20;102377.97;5020728;28;20050;-73
2023/10/28 09:36:39;;;;;;;5.32;2.05;;;;;;;4.58;82.50;102384.88;5021045;28;20112;-73
2023/10/28 09:39:13;;;;;;;5.15;1.95;;;;;;;4.55;82.54;102382.06;5020521;28;20057;-74
2023/10/28 09:41:45;;;;;;;6.43;2.63;;;;;;;4.56;82.74;102396.69;5016606;28;20046;-74
2023/10/28 09:44:14;;;;;;;3.50;2.05;;;;;;;4.53;83.54;102399.00;5016846;28;20112;-73
2023/10/28 09:46:45;;;;;;;3.90;2.13;;;;;;;4.52;83.66;102399.78;5021145;28;20118;-74
2023/10/28 09:49:19;;;;;;;4.03;2.20;;;;;;;4.50;82.68;102404.78;5020015;28;20099;-74
2023/10/28 09:51:52;;;;;;;2.83;1.50;;;;;;;4.50;82.98;102401.31;5019931;28;20085;-73
2023/10/28 09:54:27;;;;;;;3.55;2.15;;;;;;;4.50;81.10;102399.66;5020303;28;20049;-73
2023/10/28 09:57:01;;;;;;;3.83;1.92;;;;;;;4.51;80.61;102401.47;5017383;28;20487;-73
2023/10/28 09:59:35;;;;;;;4.00;1.50;;;;;;;4.53;79.35;102404.13;5023817;28;20041;-72
2023/10/28 10:02:23;;;;;;;4.72;1.98;;;;;;;4.52;78.56;102394.66;5021529;28;20180;-73
2023/10/28 10:04:58;;;;;;;2.90;1.42;;;;;;;4.53;77.35;102392.19;5025328;28;20037;-72
2023/10/28 10:07:27;;;;;;;2.90;1.50;;;;;;;4.53;77.31;102401.56;5020652;28;20070;-73
2023/10/28 10:10:10;;;;;;;3.63;1.60;;;;;;;4.55;76.50;102400.03;5023918;28;20580;-73
2023/10/28 10:12:39;;;;;;;;;;;;;;;4.56;75.37;102400.16;5020620;28;20046;-73
2023/10/28 10:15:13;;;;;;;3.90;1.98;;;;;;;4.58;76.53;102400.25;5019359;28;19925;-73
2023/10/28 10:17:55;;;;;;;5.85;1.98;;;;;;;4.58;76.92;102408.88;5020875;28;20192;-73
2023/10/28 10:20:27;;;;;;;3.20;1.67;;;;;;;4.57;75.15;102404.50;5022106;28;20067;-72
2023/10/28 10:23:01;;;;;;;4.07;1.83;;;;;;;4.59;75.67;102408.06;5022049;28;20076;-74
2023/10/28 10:25:35;;;;;;;2.55;1.48;;;;;;;4.60;74.34;102408.97;5021102;28;20483;-74
2023/10/28 10:28:19;;;;;;;6.10;2.58;;;;;;;4.61;75.14;102405.66;5020385;28;20099;-74
2023/10/28 10:30:48;;;;;;;4.03;1.70;;;;;;;4.62;72.98;102418.56;5015592;28;20046;-73
2023/10/28 10:33:27;;;;;;;4.03;1.38;;;;;;;4.63;73.73;102404.09;5018991;28;20074;-73
2023/10/28 10:35:56;;;;;;;4.88;1.63;;;;;;;4.63;71.69;102404.09;5014846;28;20045;-73
2023/10/28 10:38:29;;;;;;;5.78;2.15;;;;;;;4.64;72.03;102412.69;5021790;28;20085;-73
2023/10/28 10:40:59;;;;;;;2.42;1.65;;;;;;;4.64;72.40;102413.56;5020315;28;20125;-72
2023/10/28 10:43:38;;;;;;;2.58;1.30;;;;;;;4.65;73.62;102411.91;5017385;28;20085;-73
2023/10/28 10:46:07;;;;;;;2.85;1.33;;;;;;;4.64;72.97;102410.13;5022187;28;20049;-74
2023/10/28 10:48:36;;;;;;;4.43;1.73;;;;;;;4.62;71.42;102418.56;5018705;28;20133;-73
2023/10/28 10:51:05;;;;;;;2.55;1.60;;;;;;;4.62;70.95;102407.41;5017481;28;20205;-73
2023/10/28 10:53:43;;;;;;;2.08;1.02;;;;;;;4.61;70.79;102408.22;5018363;28;20042;-73
2023/10/28 10:56:21;;;;;;;2.33;1.73;;;;;;;4.60;71.28;102408.97;5015610;28;20046;-72
2023/10/28 10:58:58;;;;;;;3.42;1.65;;;;;;;4.60;71.54;102403.84;5019275;28;20054;-73
2023/10/28 11:01:27;;;;;;;2.33;1.13;;;;;;;4.60;71.92;102403.84;5014702;28;20038;-73
2023/10/28 11:03:57;;;;;;;1.00;0.85;;;;;;;4.61;69.61;102423.59;5020164;28;20629;-73
2023/10/28 11:06:26;;;;;;;2.75;1.40;;;;;;;4.61;69.04;102421.03;5018597;28;20042;-73
2023/10/28 11:08:57;;;;;;;2.50;1.83;;;;;;;4.61;70.14;102421.91;5018791;28;20518;-73
2023/10/28 11:11:25;;;;;;;2.33;1.42;;;;;;;4.60;69.30;102426.91;5023627;28;20046;-74
2023/10/28 11:13:55;;;;;;;3.75;1.60;;;;;;;4.60;69.71;102429.47;5024092;28;20649;-73
2023/10/28 11:16:28;;;;;;;3.00;1.75;;;;;;;4.59;70.12;102428.59;5017865;28;20579;-73
2023/10/28 11:18:59;;;;;;;3.03;1.70;;;;;;;4.59;69.35;102430.25;5016086;28;20466;-73
2023/10/28 11:21:28;;;;;;;3.05;1.17;;;;;;;4.56;70.32;102436.03;5016700;28;20079;-73
2023/10/28 11:23:57;;;;;;;4.43;1.90;;;;;;;4.54;69.78;102429.91;5021093;28;20060;-73
2023/10/28 11:26:27;;;;;;;1.83;1.35;;;;;;;4.53;69.81;102422.06;5016506;28;20052;-73
2023/10/28 11:29:09;;;;;;;3.28;1.65;;;;;;;4.50;70.55;102419.28;5022924;28;20153;-73
2023/10/28 11:31:40;;;;;;;2.83;1.60;;;;;;;4.47;70.32;102421.59;5025950;28;20498;-73
2023/10/28 11:34:09;;;;;;;1.75;1.33;;;;;;;4.45;70.73;102418.91;5020567;28;20287;-72
2023/10/28 11:36:39;;;;;;;2.83;1.27;;;;;;;4.40;71.15;102418.53;5025976;28;20077;-74
2023/10/28 11:39:13;;;;;;;5.45;1.85;;;;;;;4.38;71.37;102424.31;5024516;28;20605;-75
2023/10/28 11:41:47;;;;;;;3.50;1.70;;;;;;;4.35;71.39;102422.38;5020456;28;20492;-73
2023/10/28 11:44:18;;;;;;;6.28;1.80;;;;;;;4.30;72.39;102425.34;5018517;28;20056;-72
2023/10/28 11:46:47;;;;;;;2.55;1.35;;;;;;;4.26;72.48;102429.34;5021854;28;20100;-73
2023/10/28 11:49:16;;;;;;;2.13;1.75;;;;;;;4.22;72.63;102437.53;5023681;28;20057;-74